Andale, Kansas
Current Conditions -  °F | °C
As of 1:53 AM on Saturday 29 Nov 2014 (Local Time) from KICT Reporting Station
Clear Clear  
Wind Chill: 41°   Ceiling: Unl
Heat Index: 46°   Visibility: 10mi
Dew Point: 40°   Wind: 9mph
Humidity: 79%   Direction: 160°SSE
Pressure: 29.68"   Gusts: NA
Location:  37.79°N, 97.63°W
Report Text: KICT 290753Z 16008KT 10SM CLR 08/04 A2968 RMK AO2 SLP050 T00780044
Loading
Personal Weather Stations






























Interactive Weather Map New forecast layout! Learn more

10-Day Weather Forecast

Advertisements
Track Severe Weather on mobile